sensor_id;sensor_type;location;lat;lon;timestamp;pressure;altitude;pressure_sealevel;temperature;humidity
64827;BME280;51265;53.972;12.286;2024-02-21T00:00:11;101059.28;;;6.39;100.00
64827;BME280;51265;53.972;12.286;2024-02-21T00:02:39;101065.00;;;6.37;100.00
64827;BME280;51265;53.972;12.286;2024-02-21T00:05:05;101065.56;;;6.39;100.00
64827;BME280;51265;53.972;12.286;2024-02-21T00:07:31;101065.63;;;6.44;100.00
64827;BME280;51265;53.972;12.286;2024-02-21T00:09:57;101060.88;;;6.35;100.00
64827;BME280;51265;53.972;12.286;2024-02-21T00:12:23;101054.06;;;6.37;100.00
64827;BME280;51265;53.972;12.286;2024-02-21T00:14:50;101055.72;;;6.38;100.00
64827;BME280;51265;53.972;12.286;2024-02-21T00:17:16;101052.47;;;6.41;100.00
64827;BME280;51265;53.972;12.286;2024-02-21T00:19:42;101048.13;;;6.45;100.00
64827;BME280;51265;53.972;12.286;2024-02-21T00:22:08;101048.13;;;6.45;100.00
64827;BME280;51265;53.972;12.286;2024-02-21T00:24:34;101036.84;;;6.37;100.00
64827;BME280;51265;53.972;12.286;2024-02-21T00:27:00;101033.84;;;6.43;100.00
64827;BME280;51265;53.972;12.286;2024-02-21T00:29:27;101030.56;;;6.41;100.00
64827;BME280;51265;53.972;12.286;2024-02-21T00:31:53;101028.63;;;6.37;100.00
64827;BME280;51265;53.972;12.286;2024-02-21T00:34:19;101025.09;;;6.41;100.00
64827;BME280;51265;53.972;12.286;2024-02-21T00:36:45;101013.03;;;6.37;100.00
64827;BME280;51265;53.972;12.286;2024-02-21T00:39:11;101006.44;;;6.33;100.00
64827;BME280;51265;53.972;12.286;2024-02-21T00:41:38;101011.91;;;6.33;100.00
64827;BME280;51265;53.972;12.286;2024-02-21T00:44:04;101011.38;;;6.36;100.00
64827;BME280;51265;53.972;12.286;2024-02-21T00:46:32;101009.72;;;6.35;100.00
64827;BME280;51265;53.972;12.286;2024-02-21T00:48:58;101009.72;;;6.35;100.00
64827;BME280;51265;53.972;12.286;2024-02-21T00:51:24;101004.25;;;6.35;100.00
64827;BME280;51265;53.972;12.286;2024-02-21T00:53:50;101001.34;;;6.47;100.00
64827;BME280;51265;53.972;12.286;2024-02-21T00:56:17;101007.88;;;6.41;100.00
64827;BME280;51265;53.972;12.286;2024-02-21T00:58:43;101008.69;;;6.41;100.00
64827;BME280;51265;53.972;12.286;2024-02-21T01:01:09;100999.91;;;6.39;100.00
64827;BME280;51265;53.972;12.286;2024-02-21T01:03:35;100996.09;;;6.40;100.00
64827;BME280;51265;53.972;12.286;2024-02-21T01:06:01;100997.75;;;6.41;100.00
64827;BME280;51265;53.972;12.286;2024-02-21T01:08:27;101001.56;;;6.40;100.00
64827;BME280;51265;53.972;12.286;2024-02-21T01:10:53;100992.28;;;6.41;100.00
64827;BME280;51265;53.972;12.286;2024-02-21T01:13:19;100986.28;;;6.44;100.00
64827;BME280;51265;53.972;12.286;2024-02-21T01:15:46;100979.69;;;6.40;100.00
64827;BME280;51265;53.972;12.286;2024-02-21T01:18:12;100977.50;;;6.42;100.00
64827;BME280;51265;53.972;12.286;2024-02-21T01:20:38;100970.09;;;6.43;100.00
64827;BME280;51265;53.972;12.286;2024-02-21T01:23:04;100976.16;;;6.45;100.00
64827;BME280;51265;53.972;12.286;2024-02-21T01:25:30;100972.06;;;6.47;100.00
64827;BME280;51265;53.972;12.286;2024-02-21T01:27:57;100968.19;;;6.43;100.00
64827;BME280;51265;53.972;12.286;2024-02-21T01:30:24;100958.09;;;6.44;100.00
64827;BME280;51265;53.972;12.286;2024-02-21T01:32:50;100955.91;;;6.46;100.00
64827;BME280;51265;53.972;12.286;2024-02-21T01:35:17;100955.59;;;6.42;100.00
64827;BME280;51265;53.972;12.286;2024-02-21T01:37:44;100950.72;;;6.44;100.00
64827;BME280;51265;53.972;12.286;2024-02-21T01:40:10;100946.38;;;6.48;100.00
64827;BME280;51265;53.972;12.286;2024-02-21T01:42:40;100940.88;;;6.48;100.00
64827;BME280;51265;53.972;12.286;2024-02-21T01:45:10;100940.31;;;6.46;100.00
64827;BME280;51265;53.972;12.286;2024-02-21T01:47:36;100938.97;;;6.49;100.00
64827;BME280;51265;53.972;12.286;2024-02-21T01:50:03;100928.84;;;6.49;100.00
64827;BME280;51265;53.972;12.286;2024-02-21T01:52:30;100922.84;;;6.53;100.00
64827;BME280;51265;53.972;12.286;2024-02-21T01:54:57;100927.22;;;6.48;100.00
64827;BME280;51265;53.972;12.286;2024-02-21T01:57:24;100924.22;;;6.55;100.00
64827;BME280;51265;53.972;12.286;2024-02-21T01:59:50;100927.53;;;6.57;100.00
64827;BME280;51265;53.972;12.286;2024-02-21T02:02:17;100915.19;;;6.55;100.00
64827;BME280;51265;53.972;12.286;2024-02-21T02:04:44;100902.34;;;6.60;100.00
64827;BME280;51265;53.972;12.286;2024-02-21T02:07:10;100906.47;;;6.58;100.00
64827;BME280;51265;53.972;12.286;2024-02-21T02:09:37;100896.06;;;6.60;100.00
64827;BME280;51265;53.972;12.286;2024-02-21T02:12:03;100896.63;;;6.62;100.00
64827;BME280;51265;53.972;12.286;2024-02-21T02:14:29;100893.38;;;6.65;100.00
64827;BME280;51265;53.972;12.286;2024-02-21T02:16:55;100895.00;;;6.66;100.00
64827;BME280;51265;53.972;12.286;2024-02-21T02:19:21;100888.41;;;6.62;100.00
64827;BME280;51265;53.972;12.286;2024-02-21T02:21:54;100895.00;;;6.66;100.00
64827;BME280;51265;53.972;12.286;2024-02-21T02:24:24;100884.59;;;6.63;100.00
64827;BME280;51265;53.972;12.286;2024-02-21T02:26:52;100876.38;;;6.63;100.00
64827;BME280;51265;53.972;12.286;2024-02-21T02:29:18;100880.75;;;6.64;100.00
64827;BME280;51265;53.972;12.286;2024-02-21T02:31:44;100872.59;;;6.69;100.00
64827;BME280;51265;53.972;12.286;2024-02-21T02:34:11;100867.13;;;6.69;100.00
64827;BME280;51265;53.972;12.286;2024-02-21T02:36:37;100863.00;;;6.66;100.00
64827;BME280;51265;53.972;12.286;2024-02-21T02:39:03;100864.41;;;6.74;100.00
64827;BME280;51265;53.972;12.286;2024-02-21T02:41:29;100856.72;;;6.71;100.00
64827;BME280;51265;53.972;12.286;2024-02-21T02:43:55;100852.34;;;6.70;100.00
64827;BME280;51265;53.972;12.286;2024-02-21T02:46:21;100846.84;;;6.70;100.00
64827;BME280;51265;53.972;12.286;2024-02-21T02:48:47;100851.22;;;6.71;100.00
64827;BME280;51265;53.972;12.286;2024-02-21T02:51:14;100846.84;;;6.70;100.00
64827;BME280;51265;53.972;12.286;2024-02-21T02:53:40;100837.81;;;6.69;100.00
64827;BME280;51265;53.972;12.286;2024-02-21T02:56:06;100840.28;;;6.71;100.00
64827;BME280;51265;53.972;12.286;2024-02-21T02:58:33;100837.03;;;6.84;100.00
64827;BME280;51265;53.972;12.286;2024-02-21T03:01:01;100833.22;;;6.85;100.00
64827;BME280;51265;53.972;12.286;2024-02-21T03:03:28;100835.41;;;6.88;100.00
64827;BME280;51265;53.972;12.286;2024-02-21T03:05:54;100824.47;;;6.88;100.00
64827;BME280;51265;53.972;12.286;2024-02-21T03:08:20;100810.47;;;6.85;100.00
64827;BME280;51265;53.972;12.286;2024-02-21T03:10:47;100817.88;;;6.89;100.00
64827;BME280;51265;53.972;12.286;2024-02-21T03:13:13;100811.88;;;6.92;100.00
64827;BME280;51265;53.972;12.286;2024-02-21T03:15:39;100803.94;;;6.91;100.00
64827;BME280;51265;53.972;12.286;2024-02-21T03:18:05;100786.13;;;6.83;100.00
64827;BME280;51265;53.972;12.286;2024-02-21T03:20:31;100777.91;;;6.83;100.00
64827;BME280;51265;53.972;12.286;2024-02-21T03:22:58;100770.81;;;6.87;100.00
64827;BME280;51265;53.972;12.286;2024-02-21T03:25:24;100757.41;;;6.86;100.00
64827;BME280;51265;53.972;12.286;2024-02-21T03:27:50;100765.03;;;6.84;100.00
64827;BME280;51265;53.972;12.286;2024-02-21T03:30:17;100742.03;;;6.85;100.00
64827;BME280;51265;53.972;12.286;2024-02-21T03:32:43;100751.06;;;6.85;100.00
64827;BME280;51265;53.972;12.286;2024-02-21T03:35:10;100760.66;;;6.88;100.00
64827;BME280;51265;53.972;12.286;2024-02-21T03:37:36;100771.91;;;6.91;100.00
64827;BME280;51265;53.972;12.286;2024-02-21T03:40:05;100782.84;;;6.91;100.00
64827;BME280;51265;53.972;12.286;2024-02-21T03:42:33;100775.19;;;6.93;100.00
64827;BME280;51265;53.972;12.286;2024-02-21T03:44:59;100788.34;;;7.02;100.00
64827;BME280;51265;53.972;12.286;2024-02-21T03:47:25;100786.72;;;7.01;100.00
64827;BME280;51265;53.972;12.286;2024-02-21T03:49:51;100777.38;;;7.02;100.00
64827;BME280;51265;53.972;12.286;2024-02-21T03:52:17;100776.84;;;7.05;100.00
64827;BME280;51265;53.972;12.286;2024-02-21T03:54:43;100771.38;;;7.05;100.00
64827;BME280;51265;53.972;12.286;2024-02-21T03:57:10;100787.81;;;7.05;100.00
64827;BME280;51265;53.972;12.286;2024-02-21T03:59:37;100774.69;;;7.07;100.00
64827;BME280;51265;53.972;12.286;2024-02-21T04:02:06;100771.91;;;7.02;100.00
64827;BME280;51265;53.972;12.286;2024-02-21T04:04:35;100769.22;;;7.07;100.00
64827;BME280;51265;53.972;12.286;2024-02-21T04:07:03;100773.03;;;7.11;100.00
64827;BME280;51265;53.972;12.286;2024-02-21T04:09:33;100772.22;;;7.15;100.00
64827;BME280;51265;53.972;12.286;2024-02-21T04:12:00;100771.41;;;7.15;100.00
64827;BME280;51265;53.972;12.286;2024-02-21T04:14:27;100769.75;;;7.19;100.00
64827;BME280;51265;53.972;12.286;2024-02-21T04:16:53;100758.81;;;7.24;100.00
64827;BME280;51265;53.972;12.286;2024-02-21T04:19:19;100765.91;;;7.25;100.00
64827;BME280;51265;53.972;12.286;2024-02-21T04:21:45;100758.81;;;7.24;100.00
64827;BME280;51265;53.972;12.286;2024-02-21T04:24:11;100756.59;;;7.26;100.00
64827;BME280;51265;53.972;12.286;2024-02-21T04:26:38;100751.69;;;7.33;100.00
64827;BME280;51265;53.972;12.286;2024-02-21T04:29:04;100738.81;;;7.29;100.00
64827;BME280;51265;53.972;12.286;2024-02-21T04:31:32;100743.44;;;7.23;100.00
64827;BME280;51265;53.972;12.286;2024-02-21T04:33:58;100737.16;;;7.28;100.00
64827;BME280;51265;53.972;12.286;2024-02-21T04:36:24;100732.22;;;7.30;100.00
64827;BME280;51265;53.972;12.286;2024-02-21T04:38:51;100722.38;;;7.29;100.00
64827;BME280;51265;53.972;12.286;2024-02-21T04:41:17;100727.56;;;7.35;100.00
64827;BME280;51265;53.972;12.286;2024-02-21T04:43:43;100727.84;;;7.29;100.00
64827;BME280;51265;53.972;12.286;2024-02-21T04:46:09;100728.94;;;7.33;100.00
64827;BME280;51265;53.972;12.286;2024-02-21T04:48:35;100720.44;;;7.34;100.00
64827;BME280;51265;53.972;12.286;2024-02-21T04:51:02;100718.81;;;7.33;100.00
64827;BME280;51265;53.972;12.286;2024-02-21T04:53:28;100722.66;;;7.32;100.00
64827;BME280;51265;53.972;12.286;2024-02-21T04:55:54;100707.31;;;7.36;100.00
64827;BME280;51265;53.972;12.286;2024-02-21T04:58:21;100713.31;;;7.33;100.00
64827;BME280;51265;53.972;12.286;2024-02-21T05:00:47;100719.63;;;7.29;100.00
64827;BME280;51265;53.972;12.286;2024-02-21T05:03:13;100716.59;;;7.30;100.00
64827;BME280;51265;53.972;12.286;2024-02-21T05:05:39;100711.69;;;7.32;100.00
64827;BME280;51265;53.972;12.286;2024-02-21T05:08:05;100727.84;;;7.29;100.00
64827;BME280;51265;53.972;12.286;2024-02-21T05:10:32;100727.56;;;7.35;100.00
64827;BME280;51265;53.972;12.286;2024-02-21T05:12:58;100721.28;;;7.40;100.00
64827;BME280;51265;53.972;12.286;2024-02-21T05:15:25;100722.63;;;7.37;100.00
64827;BME280;51265;53.972;12.286;2024-02-21T05:17:51;100714.69;;;7.31;100.00
64827;BME280;51265;53.972;12.286;2024-02-21T05:20:17;100718.25;;;7.31;100.00
64827;BME280;51265;53.972;12.286;2024-02-21T05:22:43;100717.44;;;7.36;100.00
64827;BME280;51265;53.972;12.286;2024-02-21T05:25:09;100721.28;;;7.24;100.00
64827;BME280;51265;53.972;12.286;2024-02-21T05:27:35;100721.28;;;7.24;100.00
64827;BME280;51265;53.972;12.286;2024-02-21T05:30:04;100727.56;;;7.25;100.00
64827;BME280;51265;53.972;12.286;2024-02-21T05:32:30;100723.19;;;7.29;100.00
64827;BME280;51265;53.972;12.286;2024-02-21T05:34:56;100736.63;;;7.20;100.00
64827;BME280;51265;53.972;12.286;2024-02-21T05:37:24;100724.81;;;7.30;100.00
64827;BME280;51265;53.972;12.286;2024-02-21T05:39:50;100725.66;;;7.26;100.00
64827;BME280;51265;53.972;12.286;2024-02-21T05:42:16;100729.75;;;7.23;100.00
64827;BME280;51265;53.972;12.286;2024-02-21T05:44:42;100731.41;;;7.24;100.00
64827;BME280;51265;53.972;12.286;2024-02-21T05:47:08;100739.06;;;7.22;100.00
64827;BME280;51265;53.972;12.286;2024-02-21T05:49:36;100736.91;;;7.24;100.00
64827;BME280;51265;53.972;12.286;2024-02-21T05:52:03;100734.69;;;7.16;100.00
64827;BME280;51265;53.972;12.286;2024-02-21T05:54:30;100727.28;;;7.21;100.00
64827;BME280;51265;53.972;12.286;2024-02-21T05:56:56;100735.78;;;7.20;100.00
64827;BME280;51265;53.972;12.286;2024-02-21T05:59:23;100733.06;;;7.20;100.00
64827;BME280;51265;53.972;12.286;2024-02-21T06:01:58;100736.63;;;7.20;100.00
64827;BME280;51265;53.972;12.286;2024-02-21T06:04:24;100738.53;;;7.25;100.00
64827;BME280;51265;53.972;12.286;2024-02-21T06:06:50;100744.53;;;7.22;100.00
64827;BME280;51265;53.972;12.286;2024-02-21T06:09:17;100734.97;;;7.19;100.00
64827;BME280;51265;53.972;12.286;2024-02-21T06:11:43;100739.59;;;7.19;100.00
64827;BME280;51265;53.972;12.286;2024-02-21T06:14:09;100737.72;;;7.19;100.00
64827;BME280;51265;53.972;12.286;2024-02-21T06:16:35;100755.50;;;7.27;100.00
64827;BME280;51265;53.972;12.286;2024-02-21T06:19:01;100750.59;;;7.29;100.00
64827;BME280;51265;53.972;12.286;2024-02-21T06:21:29;100757.72;;;7.25;100.00
64827;BME280;51265;53.972;12.286;2024-02-21T06:23:56;100748.38;;;7.31;100.00
64827;BME280;51265;53.972;12.286;2024-02-21T06:26:22;100767.84;;;7.24;100.00
64827;BME280;51265;53.972;12.286;2024-02-21T06:28:49;100782.88;;;7.02;100.00
64827;BME280;51265;53.972;12.286;2024-02-21T06:31:15;100801.47;;;6.89;100.00
64827;BME280;51265;53.972;12.286;2024-02-21T06:33:42;100804.72;;;6.81;100.00
64827;BME280;51265;53.972;12.286;2024-02-21T06:36:08;100787.75;;;6.84;100.00
64827;BME280;51265;53.972;12.286;2024-02-21T06:38:34;100788.84;;;6.78;100.00
64827;BME280;51265;53.972;12.286;2024-02-21T06:41:00;100793.25;;;6.84;100.00
64827;BME280;51265;53.972;12.286;2024-02-21T06:43:28;100797.66;;;6.90;100.00
64827;BME280;51265;53.972;12.286;2024-02-21T06:45:54;100797.06;;;6.83;100.00
64827;BME280;51265;53.972;12.286;2024-02-21T06:48:22;100799.53;;;6.80;100.00
64827;BME280;51265;53.972;12.286;2024-02-21T06:50:48;100795.44;;;6.82;100.00
64827;BME280;51265;53.972;12.286;2024-02-21T06:53:14;100791.59;;;6.73;100.00
64827;BME280;51265;53.972;12.286;2024-02-21T06:55:41;100792.66;;;6.72;100.00
64827;BME280;51265;53.972;12.286;2024-02-21T06:58:07;100789.91;;;6.72;100.00
64827;BME280;51265;53.972;12.286;2024-02-21T07:00:38;100800.03;;;6.71;100.00
64827;BME280;51265;53.972;12.286;2024-02-21T07:03:04;100793.75;;;6.76;100.00
64827;BME280;51265;53.972;12.286;2024-02-21T07:05:31;100799.50;;;6.74;100.00
64827;BME280;51265;53.972;12.286;2024-02-21T07:07:57;100800.91;;;6.82;100.00
64827;BME280;51265;53.972;12.286;2024-02-21T07:10:23;100797.94;;;6.94;100.00
64827;BME280;51265;53.972;12.286;2024-02-21T07:12:49;100796.28;;;6.93;100.00
64827;BME280;51265;53.972;12.286;2024-02-21T07:15:17;100807.78;;;6.95;100.00
64827;BME280;51265;53.972;12.286;2024-02-21T07:17:44;100805.88;;;7.06;100.00
64827;BME280;51265;53.972;12.286;2024-02-21T07:20:10;100808.38;;;7.07;100.00
64827;BME280;51265;53.972;12.286;2024-02-21T07:22:36;100811.63;;;6.99;100.00
64827;BME280;51265;53.972;12.286;2024-02-21T07:25:03;100805.88;;;7.06;100.00
64827;BME280;51265;53.972;12.286;2024-02-21T07:27:29;100784.53;;;7.03;100.00
64827;BME280;51265;53.972;12.286;2024-02-21T07:29:57;100784.50;;;6.97;100.00
64827;BME280;51265;53.972;12.286;2024-02-21T07:32:23;100777.94;;;6.98;100.00
64827;BME280;51265;53.972;12.286;2024-02-21T07:34:49;100766.97;;;6.88;100.00
64827;BME280;51265;53.972;12.286;2024-02-21T07:37:15;100767.53;;;6.95;100.00
64827;BME280;51265;53.972;12.286;2024-02-21T07:39:42;100764.75;;;6.70;100.00
64827;BME280;51265;53.972;12.286;2024-02-21T07:42:08;100753.22;;;6.63;100.00
64827;BME280;51265;53.972;12.286;2024-02-21T07:44:34;100756.78;;;6.63;100.00
64827;BME280;51265;53.972;12.286;2024-02-21T07:47:00;100747.22;;;6.61;100.00
64827;BME280;51265;53.972;12.286;2024-02-21T07:49:26;100759.22;;;6.60;100.00
64827;BME280;51265;53.972;12.286;2024-02-21T07:51:52;100758.69;;;6.63;100.00
64827;BME280;51265;53.972;12.286;2024-02-21T07:54:18;100769.63;;;6.63;100.00
64827;BME280;51265;53.972;12.286;2024-02-21T07:56:45;100762.00;;;6.65;100.00
64827;BME280;51265;53.972;12.286;2024-02-21T07:59:11;100758.16;;;6.71;100.00
64827;BME280;51265;53.972;12.286;2024-02-21T08:01:39;100765.28;;;6.72;100.00
64827;BME280;51265;53.972;12.286;2024-02-21T08:04:05;100769.69;;;6.83;100.00
64827;BME280;51265;53.972;12.286;2024-02-21T08:06:31;100760.91;;;6.81;100.00
64827;BME280;51265;53.972;12.286;2024-02-21T08:08:57;100750.00;;;6.86;100.00
64827;BME280;51265;53.972;12.286;2024-02-21T08:11:23;100749.97;;;6.71;100.00
64827;BME280;51265;53.972;12.286;2024-02-21T08:13:50;100739.81;;;6.66;100.00
64827;BME280;51265;53.972;12.286;2024-02-21T08:16:16;100740.13;;;6.80;100.00
64827;BME280;51265;53.972;12.286;2024-02-21T08:18:44;100743.41;;;6.82;100.00
64827;BME280;51265;53.972;12.286;2024-02-21T08:21:10;100743.16;;;6.94;100.00
64827;BME280;51265;53.972;12.286;2024-02-21T08:23:36;100748.38;;;6.90;100.00
64827;BME280;51265;53.972;12.286;2024-02-21T08:26:03;100737.44;;;7.11;100.00
64827;BME280;51265;53.972;12.286;2024-02-21T08:28:30;100758.81;;;7.24;100.00
64827;BME280;51265;53.972;12.286;2024-02-21T08:30:56;100738.53;;;7.15;100.00
64827;BME280;51265;53.972;12.286;2024-02-21T08:33:22;100748.94;;;7.33;100.00
64827;BME280;51265;53.972;12.286;2024-02-21T08:35:51;100744.56;;;7.32;100.00
64827;BME280;51265;53.972;12.286;2024-02-21T08:38:17;100734.13;;;7.34;100.00
64827;BME280;51265;53.972;12.286;2024-02-21T08:40:44;100730.59;;;7.49;100.00
64827;BME280;51265;53.972;12.286;2024-02-21T08:43:10;100723.16;;;7.60;100.00
64827;BME280;51265;53.972;12.286;2024-02-21T08:45:37;100725.88;;;7.70;100.00
64827;BME280;51265;53.972;12.286;2024-02-21T08:48:06;100730.78;;;7.88;100.00
64827;BME280;51265;53.972;12.286;2024-02-21T08:50:32;100733.47;;;8.04;100.00
64827;BME280;51265;53.972;12.286;2024-02-21T08:52:58;100728.47;;;8.21;100.00
64827;BME280;51265;53.972;12.286;2024-02-21T08:55:24;100724.66;;;8.17;100.00
64827;BME280;51265;53.972;12.286;2024-02-21T08:57:50;100720.25;;;8.21;100.00
64827;BME280;51265;53.972;12.286;2024-02-21T09:00:17;100711.28;;;8.00;100.00
64827;BME280;51265;53.972;12.286;2024-02-21T09:02:43;100681.94;;;7.95;100.00
64827;BME280;51265;53.972;12.286;2024-02-21T09:05:09;100695.59;;;8.11;100.00
64827;BME280;51265;53.972;12.286;2024-02-21T09:07:35;100687.31;;;8.21;100.00
64827;BME280;51265;53.972;12.286;2024-02-21T09:10:02;100679.03;;;8.31;100.00
64827;BME280;51265;53.972;12.286;2024-02-21T09:12:28;100676.97;;;8.08;100.00
64827;BME280;51265;53.972;12.286;2024-02-21T09:14:56;100670.88;;;8.16;100.00
64827;BME280;51265;53.972;12.286;2024-02-21T09:17:22;100652.34;;;7.87;100.00
64827;BME280;51265;53.972;12.286;2024-02-21T09:19:49;100662.72;;;8.01;100.00
64827;BME280;51265;53.972;12.286;2024-02-21T09:22:15;100650.06;;;8.10;100.00
64827;BME280;51265;53.972;12.286;2024-02-21T09:24:41;100650.06;;;8.10;100.00
64827;BME280;51265;53.972;12.286;2024-02-21T09:27:07;100651.13;;;8.14;100.00
64827;BME280;51265;53.972;12.286;2024-02-21T09:29:33;100639.06;;;8.20;100.00
64827;BME280;51265;53.972;12.286;2024-02-21T09:31:59;100631.03;;;8.29;100.00
64827;BME280;51265;53.972;12.286;2024-02-21T09:34:26;100638.38;;;8.48;100.00
64827;BME280;51265;53.972;12.286;2024-02-21T09:36:53;100629.63;;;8.41;100.00
64827;BME280;51265;53.972;12.286;2024-02-21T09:39:19;100615.91;;;8.36;100.00
64827;BME280;51265;53.972;12.286;2024-02-21T09:41:50;100626.88;;;8.41;100.00
64827;BME280;51265;53.972;12.286;2024-02-21T09:44:19;100626.94;;;8.70;100.00
64827;BME280;51265;53.972;12.286;2024-02-21T09:47:03;100625.47;;;8.83;100.00
64827;BME280;51265;53.972;12.286;2024-02-21T09:49:32;100622.22;;;8.76;100.00
64827;BME280;51265;53.972;12.286;2024-02-21T09:52:04;100618.81;;;8.89;100.00
64827;BME280;51265;53.972;12.286;2024-02-21T09:54:32;100618.16;;;9.03;100.00
64827;BME280;51265;53.972;12.286;2024-02-21T09:57:00;100606.25;;;8.83;100.00
64827;BME280;51265;53.972;12.286;2024-02-21T09:59:28;100603.34;;;9.04;100.00
64827;BME280;51265;53.972;12.286;2024-02-21T10:01:54;100590.59;;;9.13;100.00
64827;BME280;51265;53.972;12.286;2024-02-21T10:04:21;100581.59;;;9.07;100.00
64827;BME280;51265;53.972;12.286;2024-02-21T10:06:47;100587.91;;;9.32;100.00
64827;BME280;51265;53.972;12.286;2024-02-21T10:09:26;100589.91;;;9.26;100.00
64827;BME280;51265;53.972;12.286;2024-02-21T10:12:07;100569.69;;;9.41;100.00
64827;BME280;51265;53.972;12.286;2024-02-21T10:14:34;100576.72;;;9.28;100.00
64827;BME280;51265;53.972;12.286;2024-02-21T10:17:00;100575.03;;;9.32;100.00
64827;BME280;51265;53.972;12.286;2024-02-21T10:19:27;100570.66;;;9.26;100.00
64827;BME280;51265;53.972;12.286;2024-02-21T10:22:04;100544.28;;;9.01;100.00
64827;BME280;51265;53.972;12.286;2024-02-21T10:24:31;100558.16;;;8.86;100.00
64827;BME280;51265;53.972;12.286;2024-02-21T10:26:59;100558.00;;;8.72;100.00
64827;BME280;51265;53.972;12.286;2024-02-21T10:29:26;100545.41;;;8.71;100.00
64827;BME280;51265;53.972;12.286;2024-02-21T10:31:52;100541.34;;;8.92;100.00
64827;BME280;51265;53.972;12.286;2024-02-21T10:34:18;100545.22;;;8.91;100.00
64827;BME280;51265;53.972;12.286;2024-02-21T10:36:44;100549.44;;;9.08;100.00
64827;BME280;51265;53.972;12.286;2024-02-21T10:39:10;100531.84;;;9.09;100.00
64827;BME280;51265;53.972;12.286;2024-02-21T10:41:37;100529.38;;;9.31;100.00
64827;BME280;51265;53.972;12.286;2024-02-21T10:44:05;100498.06;;;9.32;100.00
64827;BME280;51265;53.972;12.286;2024-02-21T10:46:32;100492.59;;;9.51;100.00
64827;BME280;51265;53.972;12.286;2024-02-21T10:49:10;100460.59;;;9.79;100.00
64827;BME280;51265;53.972;12.286;2024-02-21T10:51:43;100439.66;;;10.16;100.00
64827;BME280;51265;53.972;12.286;2024-02-21T10:57:06;100391.75;;;9.84;100.00
64827;BME280;51265;53.972;12.286;2024-02-21T10:59:34;100365.75;;;9.58;100.00
64827;BME280;51265;53.972;12.286;2024-02-21T11:02:03;100364.84;;;9.43;100.00
64827;BME280;51265;53.972;12.286;2024-02-21T11:04:29;100374.53;;;9.41;100.00
64827;BME280;51265;53.972;12.286;2024-02-21T11:06:57;100370.72;;;9.56;100.00
64827;BME280;51265;53.972;12.286;2024-02-21T11:09:31;100376.28;;;9.88;100.00
64827;BME280;51265;53.972;12.286;2024-02-21T11:12:03;100352.78;;;9.77;100.00
64827;BME280;51265;53.972;12.286;2024-02-21T11:14:30;100351.81;;;9.87;100.00
64827;BME280;51265;53.972;12.286;2024-02-21T11:17:01;100329.41;;;9.93;100.00
64827;BME280;51265;53.972;12.286;2024-02-21T11:19:29;100326.75;;;9.88;100.00
64827;BME280;51265;53.972;12.286;2024-02-21T11:21:57;100324.69;;;9.80;100.00
64827;BME280;51265;53.972;12.286;2024-02-21T11:24:29;100324.97;;;10.11;100.00
64827;BME280;51265;53.972;12.286;2024-02-21T11:27:16;100324.31;;;10.61;100.00
64827;BME280;51265;53.972;12.286;2024-02-21T11:29:49;100307.88;;;10.97;100.00
64827;BME280;51265;53.972;12.286;2024-02-21T11:32:20;100268.25;;;10.70;100.00
64827;BME280;51265;53.972;12.286;2024-02-21T11:35:00;100243.75;;;10.69;100.00
64827;BME280;51265;53.972;12.286;2024-02-21T11:37:31;100250.16;;;10.78;100.00
64827;BME280;51265;53.972;12.286;2024-02-21T11:40:03;100249.31;;;10.91;100.00
64827;BME280;51265;53.972;12.286;2024-02-21T11:42:30;100219.19;;;10.59;100.00
64827;BME280;51265;53.972;12.286;2024-02-21T11:44:56;100236.72;;;10.63;100.00
64827;BME280;51265;53.972;12.286;2024-02-21T11:47:23;100218.59;;;10.34;100.00
64827;BME280;51265;53.972;12.286;2024-02-21T11:49:49;100208.88;;;10.23;100.00
64827;BME280;51265;53.972;12.286;2024-02-21T11:52:24;100210.84;;;10.36;100.00
64827;BME280;51265;53.972;12.286;2024-02-21T11:54:54;100196.06;;;10.05;100.00
64827;BME280;51265;53.972;12.286;2024-02-21T11:57:22;100205.72;;;9.88;100.00
64827;BME280;51265;53.972;12.286;2024-02-21T11:59:48;100208.38;;;9.93;100.00
64827;BME280;51265;53.972;12.286;2024-02-21T12:02:16;100195.53;;;10.03;100.00
64827;BME280;51265;53.972;12.286;2024-02-21T12:04:43;100186.56;;;9.83;100.00
64827;BME280;51265;53.972;12.286;2024-02-21T12:07:10;100192.13;;;9.64;100.00
64827;BME280;51265;53.972;12.286;2024-02-21T12:09:36;100183.09;;;9.31;100.00
64827;BME280;51265;53.972;12.286;2024-02-21T12:12:04;100197.16;;;9.30;100.00
64827;BME280;51265;53.972;12.286;2024-02-21T12:14:32;100198.41;;;9.37;100.00
64827;BME280;51265;53.972;12.286;2024-02-21T12:16:59;100193.41;;;9.39;100.00
64827;BME280;51265;53.972;12.286;2024-02-21T12:19:26;100192.16;;;9.32;100.00
64827;BME280;51265;53.972;12.286;2024-02-21T12:21:53;100198.66;;;9.22;100.00
64827;BME280;51265;53.972;12.286;2024-02-21T12:24:22;100177.09;;;9.29;100.00
64827;BME280;51265;53.972;12.286;2024-02-21T12:26:52;100171.41;;;9.39;100.00
64827;BME280;51265;53.972;12.286;2024-02-21T12:29:22;100158.81;;;9.38;100.00
64827;BME280;51265;53.972;12.286;2024-02-21T12:31:49;100172.63;;;9.33;100.00
64827;BME280;51265;53.972;12.286;2024-02-21T12:34:16;100164.41;;;9.33;100.00
64827;BME280;51265;53.972;12.286;2024-02-21T12:36:44;100184.03;;;9.40;100.00
64827;BME280;51265;53.972;12.286;2024-02-21T12:39:11;100162.03;;;9.40;100.00
64827;BME280;51265;53.972;12.286;2024-02-21T12:41:37;100174.06;;;9.44;100.00